Time;durP1;ratioP1;P1;durP2;ratioP2;P2;SDS_P1;SDS_P2;PMS_P1;PMS_P2;Temp;Humidity;BMP_temperature;BMP_pressure;BME280_temperature;BME280_humidity;BME280_pressure;Samples;Min_cycle;Max_cycle;Signal;HPM_P1;HPM_P2
2022/05/04 00:01:47;;;;;;;;;;;;;;;21.80;38.43;99127.13;4467237;32;35133;-86
2022/05/04 00:04:15;;;;;;;;;;;;;;;21.60;38.83;99133.06;4478910;32;34357;-88
2022/05/04 00:06:42;;;;;;;;;;;;;;;21.55;38.96;99128.84;4470319;32;33134;-87
2022/05/04 00:09:09;;;;;;;;;;;;;;;21.48;39.13;99125.56;4475789;32;34139;-87
2022/05/04 00:11:36;;;;;;;;;;;;;;;21.50;39.02;99128.12;4473010;32;34948;-87
2022/05/04 00:14:04;;;;;;;;;;;;;;;21.76;38.32;99132.56;4476906;32;34499;-88
2022/05/04 00:16:31;;;;;;;;;;;;;;;21.86;37.91;99124.28;4485099;31;34605;-88
2022/05/04 00:18:59;;;;;;;;;;;;;;;20.95;40.07;99124.53;4480466;32;34313;-83
2022/05/04 00:21:26;;;;;;;;;;;;;;;20.87;40.40;99132.66;4482666;32;33961;-88
2022/05/04 00:23:53;;;;;;;;;;;;;;;20.90;40.40;99132.59;4482448;32;33907;-87
2022/05/04 00:26:20;;;;;;;;;;;;;;;21.13;39.82;99135.38;4476530;32;33208;-87
2022/05/04 00:28:48;;;;;;;;;;;;;;;21.29;39.33;99132.25;4482779;32;33887;-89
2022/05/04 00:31:15;;;;;;;;;;;;;;;21.34;39.04;99131.25;4482809;32;34202;-88
2022/05/04 00:33:43;;;;;;;;;;;;;;;21.42;39.22;99130.16;4474569;31;34396;-83
2022/05/04 00:36:10;;;;;;;;;;;;;;;21.31;39.42;99133.09;4467309;32;34577;-81
2022/05/04 00:38:37;;;;;;;;;;;;;;;21.34;39.38;99130.41;4466639;32;34199;-84
2022/05/04 00:41:23;;;;;;;;;;;;;;;21.62;38.72;99133.00;4469056;32;33962;-86
2022/05/04 00:43:51;;;;;;;;;;;;;;;21.46;38.38;99135.28;4476441;32;34026;-87
2022/05/04 00:46:18;;;;;;;;;;;;;;;21.51;38.55;99133.34;4473522;32;33601;-83
2022/05/04 00:48:46;;;;;;;;;;;;;;;21.44;38.83;99138.88;4479850;32;34200;-81
2022/05/04 00:51:13;;;;;;;;;;;;;;;20.87;40.26;99130.91;4466776;32;34374;-86
2022/05/04 00:53:41;;;;;;;;;;;;;;;21.21;39.61;99136.91;4475481;32;34654;-84
2022/05/04 00:56:09;;;;;;;;;;;;;;;21.34;39.18;99131.25;4466036;32;34340;-82
2022/05/04 00:58:55;;;;;;;;;;;;;;;21.29;38.95;99133.16;4466600;32;35001;-86
2022/05/04 01:01:29;;;;;;;;;;;;;;;21.23;39.20;99130.69;4479255;32;35061;-84
2022/05/04 01:03:57;;;;;;;;;;;;;;;21.30;39.10;99129.59;4479037;32;34232;-88
2022/05/04 01:06:25;;;;;;;;;;;;;;;21.17;39.70;99133.50;4467191;32;33598;-86
2022/05/04 01:08:53;;;;;;;;;;;;;;;21.31;39.69;99139.22;4474880;32;34343;-89
2022/05/04 01:11:21;;;;;;;;;;;;;;;21.21;39.62;99132.50;4474783;32;33971;-88
2022/05/04 01:14:01;;;;;;;;;;;;;;;21.19;39.42;99136.12;4469851;32;34246;-88
2022/05/04 01:16:28;;;;;;;;;;;;;;;21.60;38.52;99132.22;4480373;32;33717;-87
2022/05/04 01:18:56;;;;;;;;;;;;;;;21.40;38.69;99131.97;4470471;32;34194;-86
2022/05/04 01:21:23;;;;;;;;;;;;;;;21.31;38.90;99128.69;4476716;32;34247;-88
2022/05/04 01:23:51;;;;;;;;;;;;;;;21.21;39.21;99123.75;4482547;32;34412;-88
2022/05/04 01:26:18;;;;;;;;;;;;;;;21.22;39.19;99128.97;4483555;32;34141;-87
2022/05/04 01:28:46;;;;;;;;;;;;;;;20.87;40.09;99125.66;4482123;32;33783;-86
2022/05/04 01:31:18;;;;;;;;;;;;;;;21.11;39.80;99133.72;4476190;32;34941;-87
2022/05/04 01:33:46;;;;;;;;;;;;;;;21.20;39.47;99124.66;4482491;32;35123;-87
2022/05/04 01:36:13;;;;;;;;;;;;;;;21.20;39.14;99128.16;4473707;32;34555;-86
2022/05/04 01:38:40;;;;;;;;;;;;;;;21.27;38.94;99129.69;4479369;32;33905;-85
2022/05/04 01:42:02;;;;;;;;;;;;;;;21.16;38.99;99137.06;4462706;32;35327;-85
2022/05/04 01:43:55;;;;;;;;;;;;;;;20.99;39.42;99136.72;4471708;32;35122;-83
2022/05/04 01:46:22;;;;;;;;;;;;;;;20.45;41.04;99135.59;4472671;32;33666;-86
2022/05/04 01:48:49;;;;;;;;;;;;;;;20.53;40.58;99135.41;4483550;32;35005;-83
2022/05/04 01:51:17;;;;;;;;;;;;;;;20.71;40.19;99128.75;4483833;32;34544;-87
2022/05/04 01:53:44;;;;;;;;;;;;;;;20.85;39.54;99129.22;4483815;32;35202;-86
2022/05/04 01:56:11;;;;;;;;;;;;;;;20.83;39.42;99131.03;4467153;32;33578;-82
2022/05/04 01:58:39;;;;;;;;;;;;;;;20.71;39.47;99134.91;4483137;32;34083;-85
2022/05/04 02:01:06;;;;;;;;;;;;;;;20.86;39.12;99130.94;4482719;32;36001;-87
2022/05/04 02:03:34;;;;;;;;;;;;;;;20.90;38.89;99129.94;4482319;32;35037;-86
2022/05/04 02:06:01;;;;;;;;;;;;;;;20.49;39.75;99132.00;4459299;32;34167;-85
2022/05/04 02:08:29;;;;;;;;;;;;;;;20.69;39.61;99120.91;4483494;32;33720;-81
2022/05/04 02:10:56;;;;;;;;;;;;;;;20.86;39.34;99131.81;4483232;32;34409;-88
2022/05/04 02:13:23;;;;;;;;;;;;;;;20.95;39.23;99119.25;4483122;32;35164;-88
2022/05/04 02:15:54;;;;;;;;;;;;;;;20.91;39.41;99115.88;4483498;32;33619;-87
2022/05/04 02:18:22;;;;;;;;;;;;;;;20.78;40.04;99123.28;4464827;32;35205;-81
2022/05/04 02:20:49;;;;;;;;;;;;;;;20.79;40.17;99114.44;4480845;32;34399;-85
2022/05/04 02:23:16;;;;;;;;;;;;;;;20.70;40.49;99122.63;4478077;32;34258;-82
2022/05/04 02:25:45;;;;;;;;;;;;;;;20.68;41.16;99118.31;4480280;32;33825;-87
2022/05/04 02:28:13;;;;;;;;;;;;;;;20.83;40.90;99120.50;4479060;32;34300;-88
2022/05/04 02:30:40;;;;;;;;;;;;;;;20.89;40.54;99115.91;4479375;32;33793;-89
2022/05/04 02:33:08;;;;;;;;;;;;;;;20.93;40.50;99121.09;4479272;32;35256;-88
2022/05/04 02:38:22;;;;;;;;;;;;;;;20.98;40.06;99120.03;4468167;32;34069;-85
2022/05/04 02:40:50;;;;;;;;;;;;;;;20.95;40.23;99124.53;4480584;32;34210;-89
2022/05/04 02:43:17;;;;;;;;;;;;;;;20.87;39.92;99138.81;4477511;32;33674;-84
2022/05/04 02:45:44;;;;;;;;;;;;;;;21.03;39.35;99135.72;4480346;32;33871;-88
2022/05/04 02:48:12;;;;;;;;;;;;;;;21.02;38.95;99139.25;4476762;32;34411;-87
2022/05/04 02:50:39;;;;;;;;;;;;;;;20.93;38.89;99142.19;4479370;32;35400;-87
2022/05/04 02:53:06;;;;;;;;;;;;;;;21.10;38.90;99142.50;4481836;32;34375;-84
2022/05/04 02:55:34;;;;;;;;;;;;;;;21.16;38.64;99134.44;4482918;32;33719;-87
2022/05/04 02:58:01;;;;;;;;;;;;;;;21.10;38.76;99142.50;4477826;32;34797;-88
2022/05/04 03:00:28;;;;;;;;;;;;;;;20.96;38.96;99142.09;4472232;32;33786;-87
2022/05/04 03:02:55;;;;;;;;;;;;;;;20.79;39.46;99143.44;4467464;32;33867;-88
2022/05/04 03:05:23;;;;;;;;;;;;;;;20.60;40.00;99131.69;4480464;32;33970;-87
2022/05/04 03:07:50;;;;;;;;;;;;;;;20.79;39.51;99143.44;4467364;32;34196;-87
2022/05/04 03:10:18;;;;;;;;;;;;;;;20.80;39.27;99129.38;4482945;32;34385;-88
2022/05/04 03:12:45;;;;;;;;;;;;;;;20.72;39.52;99136.66;4480504;32;34077;-89
2022/05/04 03:15:12;;;;;;;;;;;;;;;20.70;39.54;99138.44;4468577;32;34311;-89
2022/05/04 03:17:40;;;;;;;;;;;;;;;20.82;39.46;99130.16;4478793;32;34198;-88
2022/05/04 03:20:12;;;;;;;;;;;;;;;20.82;39.27;99134.59;4475476;32;34890;-84
2022/05/04 03:22:39;;;;;;;;;;;;;;;20.68;39.51;99140.25;4482445;32;34255;-87
2022/05/04 03:25:08;;;;;;;;;;;;;;;20.62;39.30;99138.66;4482794;32;33813;-81
2022/05/04 03:27:35;;;;;;;;;;;;;;;20.49;39.77;99149.53;4482029;32;34866;-88
2022/05/04 03:30:03;;;;;;;;;;;;;;;20.61;39.43;99138.72;4482400;32;34153;-87
2022/05/04 03:32:30;;;;;;;;;;;;;;;20.74;39.15;99150.62;4481351;32;34907;-86
2022/05/04 03:34:58;;;;;;;;;;;;;;;20.84;38.95;99144.19;4479467;32;33378;-88
2022/05/04 03:37:25;;;;;;;;;;;;;;;20.62;39.39;99148.34;4482583;32;34048;-87
2022/05/04 03:39:52;;;;;;;;;;;;;;;20.50;39.91;99153.97;4476774;32;33998;-87
2022/05/04 03:42:20;;;;;;;;;;;;;;;20.53;40.02;99157.38;4466420;32;34126;-87
2022/05/04 03:44:48;;;;;;;;;;;;;;;20.27;40.82;99154.56;4472442;32;33095;-87
2022/05/04 03:47:16;;;;;;;;;;;;;;;20.11;41.20;99160.19;4481041;32;32724;-88
2022/05/04 03:49:43;;;;;;;;;;;;;;;20.41;40.46;99162.91;4472569;32;34364;-82
2022/05/04 03:52:11;;;;;;;;;;;;;;;20.63;39.41;99157.97;4483088;32;34896;-85
2022/05/04 03:54:38;;;;;;;;;;;;;;;20.69;39.33;99163.06;4482592;32;34085;-87
2022/05/04 03:57:05;;;;;;;;;;;;;;;20.48;39.86;99161.00;4481987;32;33818;-84
2022/05/04 03:59:35;;;;;;;;;;;;;;;21.03;38.92;99160.31;4472158;32;34113;-88
2022/05/04 04:02:03;;;;;;;;;;;;;;;20.74;39.41;99161.16;4481126;32;34568;-88
2022/05/04 04:04:30;;;;;;;;;;;;;;;20.25;40.84;99156.34;4470966;32;33705;-88
2022/05/04 04:06:58;;;;;;;;;;;;;;;20.62;40.19;99162.37;4480246;32;34994;-87
2022/05/04 04:09:25;;;;;;;;;;;;;;;20.83;39.75;99160.03;4454777;32;34527;-88
2022/05/04 04:11:52;;;;;;;;;;;;;;;20.76;39.83;99159.34;4478751;32;34324;-88
2022/05/04 04:14:20;;;;;;;;;;;;;;;21.05;39.04;99165.53;4476616;32;33614;-87
2022/05/04 04:16:47;;;;;;;;;;;;;;;20.96;39.02;99165.81;4480199;32;35220;-87
2022/05/04 04:19:14;;;;;;;;;;;;;;;20.80;39.54;99166.25;4475428;32;34522;-85
2022/05/04 04:21:50;;;;;;;;;;;;;;;21.08;38.96;99165.44;4466892;32;35278;-86
2022/05/04 04:24:19;;;;;;;;;;;;;;;20.98;39.22;99175.38;4466779;32;34442;-82
2022/05/04 04:26:46;;;;;;;;;;;;;;;20.89;39.52;99176.53;4477826;32;34596;-88
2022/05/04 04:29:13;;;;;;;;;;;;;;;20.74;40.03;99184.00;4471199;32;33862;-82
2022/05/04 04:31:41;;;;;;;;;;;;;;;19.56;42.86;99184.34;4482188;32;34550;-85
2022/05/04 04:34:08;;;;;;;;;;;;;;;20.42;41.13;99183.97;4477940;32;33320;-82
2022/05/04 04:36:39;;;;;;;;;;;;;;;20.66;40.36;99181.59;4474463;32;34233;-86
2022/05/04 04:39:07;;;;;;;;;;;;;;;20.84;39.98;99185.47;4466560;32;34034;-84
2022/05/04 04:41:34;;;;;;;;;;;;;;;21.18;39.21;99181.88;4481982;32;35042;-87
2022/05/04 04:44:01;;;;;;;;;;;;;;;21.49;38.64;99192.34;4457267;32;32994;-87
2022/05/04 04:46:29;;;;;;;;;;;;;;;21.98;37.93;99190.78;4478140;32;33865;-86
2022/05/04 04:48:58;;;;;;;;;;;;;;;21.85;38.42;99192.94;4480692;32;34442;-86
2022/05/04 04:51:25;;;;;;;;;;;;;;;22.08;38.45;99186.91;4468209;32;34410;-86
2022/05/04 04:53:53;;;;;;;;;;;;;;;22.45;38.03;99186.53;4459586;32;33668;-87
2022/05/04 04:56:20;;;;;;;;;;;;;;;22.85;37.51;99184.25;4475215;32;34260;-86
2022/05/04 04:58:47;;;;;;;;;;;;;;;23.21;37.01;99195.22;4468703;32;33965;-84
2022/05/04 05:01:14;;;;;;;;;;;;;;;23.53;36.58;99183.41;4461933;32;34426;-88
2022/05/04 05:03:42;;;;;;;;;;;;;;;23.73;36.47;99191.44;4468381;32;33744;-84
2022/05/04 05:06:10;;;;;;;;;;;;;;;23.94;36.19;99191.47;4472869;32;34196;-87
2022/05/04 05:08:41;;;;;;;;;;;;;;;23.70;36.79;99188.91;4483618;32;35299;-87
2022/05/04 05:11:08;;;;;;;;;;;;;;;24.49;35.79;99187.38;4479593;32;34161;-86
2022/05/04 05:16:06;;;;;;;;;;;;;;;25.03;35.00;99192.06;4483899;32;34420;-88
2022/05/04 05:16:23;;;;;;;;;;;;;;;25.22;34.83;99187.63;4480088;32;33773;-87
2022/05/04 05:18:50;;;;;;;;;;;;;;;25.17;35.80;99194.97;4484024;32;35095;-87
2022/05/04 05:21:18;;;;;;;;;;;;;;;25.08;35.23;99203.28;4474327;32;34276;-87
2022/05/04 05:23:45;;;;;;;;;;;;;;;24.95;35.59;99206.53;4468580;32;33416;-88
2022/05/04 05:26:12;;;;;;;;;;;;;;;23.66;36.87;99207.59;4476220;32;35107;-88
2022/05/04 05:28:39;;;;;;;;;;;;;;;23.67;36.78;99202.25;4475664;32;34441;-88
2022/05/04 05:31:07;;;;;;;;;;;;;;;23.57;36.71;99198.22;4475737;32;34595;-90
2022/05/04 05:33:34;;;;;;;;;;;;;;;23.78;36.89;99197.38;4478601;32;34351;-88
2022/05/04 05:36:01;;;;;;;;;;;;;;;24.39;36.39;99201.06;4471218;32;34446;-87
2022/05/04 05:38:29;;;;;;;;;;;;;;;24.42;37.13;99203.59;4483375;32;35286;-87
2022/05/04 05:40:56;;;;;;;;;;;;;;;24.43;37.28;99200.87;4483750;32;34547;-87
2022/05/04 05:43:23;;;;;;;;;;;;;;;24.72;36.36;99202.25;4483550;32;34258;-87
2022/05/04 05:45:51;;;;;;;;;;;;;;;24.78;37.05;99202.94;4482940;32;34065;-84
2022/05/04 05:48:19;;;;;;;;;;;;;;;24.32;36.59;99196.94;4483020;32;34279;-84
2022/05/04 05:50:47;;;;;;;;;;;;;;;23.74;36.87;99205.53;4482310;32;34087;-88
2022/05/04 05:53:15;;;;;;;;;;;;;;;23.73;36.56;99206.44;4483709;32;34075;-89
2022/05/04 05:55:42;;;;;;;;;;;;;;;24.07;36.48;99205.94;4481493;32;33805;-81
2022/05/04 05:58:10;;;;;;;;;;;;;;;23.97;36.93;99205.44;4482349;32;34202;-84
2022/05/04 06:00:37;;;;;;;;;;;;;;;23.58;36.47;99212.31;4473571;32;34904;-83
2022/05/04 06:03:05;;;;;;;;;;;;;;;24.12;37.04;99214.53;4475383;32;33151;-86
2022/05/04 06:05:32;;;;;;;;;;;;;;;24.07;36.63;99215.66;4483327;31;34796;-86
2022/05/04 06:07:59;;;;;;;;;;;;;;;24.52;36.73;99219.03;4483239;32;34038;-87
2022/05/04 06:10:29;;;;;;;;;;;;;;;24.18;36.55;99219.59;4483674;32;34575;-86
2022/05/04 06:12:56;;;;;;;;;;;;;;;23.78;37.22;99223.84;4483576;32;33589;-82
2022/05/04 06:15:23;;;;;;;;;;;;;;;23.64;38.83;99233.22;4477036;32;34899;-85
2022/05/04 06:17:51;;;;;;;;;;;;;;;23.92;37.66;99233.03;4483141;32;34376;-87
2022/05/04 06:20:18;;;;;;;;;;;;;;;23.07;39.29;99238.09;4483646;32;35144;-87
2022/05/04 06:22:45;;;;;;;;;;;;;;;22.95;39.67;99233.22;4483145;32;33680;-86
2022/05/04 06:25:13;;;;;;;;;;;;;;;22.99;40.36;99246.25;4482754;32;34231;-85
2022/05/04 06:27:40;;;;;;;;;;;;;;;23.48;39.16;99238.28;4482884;32;34267;-86
2022/05/04 06:35:40;;;;;;;;;;;;;;;23.21;38.45;99240.19;4480695;32;35193;-87
2022/05/04 06:38:11;;;;;;;;;;;;;;;23.83;38.38;99242.22;4482021;32;34241;-82
2022/05/04 06:40:39;;;;;;;;;;;;;;;23.88;38.42;99234.09;4483400;32;35031;-84
2022/05/04 06:43:06;;;;;;;;;;;;;;;24.26;36.22;99228.06;4483295;32;34327;-89
2022/05/04 06:45:34;;;;;;;;;;;;;;;23.02;37.32;99240.00;4482799;32;34984;-85
2022/05/04 06:48:02;;;;;;;;;;;;;;;22.43;37.88;99240.34;4483204;32;35102;-83
2022/05/04 06:50:29;;;;;;;;;;;;;;;22.77;37.97;99240.03;4482635;32;35116;-85
2022/05/04 06:52:57;;;;;;;;;;;;;;;23.26;37.35;99243.50;4477400;32;34000;-87
2022/05/04 06:55:24;;;;;;;;;;;;;;;23.44;36.66;99236.66;4482772;32;33913;-90
2022/05/04 06:57:51;;;;;;;;;;;;;;;24.62;35.25;99232.72;4482040;32;35114;-88
2022/05/04 07:00:19;;;;;;;;;;;;;;;24.62;33.89;99231.87;4480614;32;33923;-89
2022/05/04 07:02:46;;;;;;;;;;;;;;;25.07;32.83;99234.28;4472700;32;33023;-87
2022/05/04 07:05:13;;;;;;;;;;;;;;;24.25;33.86;99229.00;4469299;32;34243;-82
2022/05/04 07:07:41;;;;;;;;;;;;;;;23.36;35.47;99238.75;4471818;32;35330;-88
2022/05/04 07:10:08;;;;;;;;;;;;;;;24.72;33.39;99228.75;4481760;32;34230;-90
2022/05/04 07:12:36;;;;;;;;;;;;;;;25.23;33.75;99221.22;4471763;32;34472;-89
2022/05/04 07:15:03;;;;;;;;;;;;;;;25.26;33.05;99225.50;4483392;32;34998;-89
2022/05/04 07:17:30;;;;;;;;;;;;;;;25.38;32.68;99232.88;4476042;32;34459;-84
2022/05/04 07:19:58;;;;;;;;;;;;;;;24.99;33.85;99233.75;4463683;32;33875;-85
2022/05/04 07:22:26;;;;;;;;;;;;;;;24.37;35.04;99237.34;4475358;32;33497;-86
2022/05/04 07:24:55;;;;;;;;;;;;;;;24.88;34.37;99238.69;4471048;32;35738;-85
2022/05/04 07:27:22;;;;;;;;;;;;;;;25.85;32.41;99235.12;4480939;32;35205;-84
2022/05/04 07:29:50;;;;;;;;;;;;;;;25.36;33.60;99235.62;4481847;32;33964;-84
2022/05/04 07:32:18;;;;;;;;;;;;;;;26.58;31.29;99236.75;4472622;32;33130;-81
2022/05/04 07:34:45;;;;;;;;;;;;;;;24.47;34.39;99236.06;4482638;32;33812;-84
2022/05/04 07:37:14;;;;;;;;;;;;;;;26.25;32.31;99238.44;4482076;32;34307;-83
2022/05/04 07:42:29;;;;;;;;;;;;;;;26.30;31.53;99239.09;4480415;32;33768;-86
2022/05/04 07:44:57;;;;;;;;;;;;;;;26.35;32.51;99240.56;4477805;32;34256;-83
2022/05/04 07:47:28;;;;;;;;;;;;;;;26.47;31.16;99233.78;4478661;32;34438;-82
2022/05/04 07:49:56;;;;;;;;;;;;;;;26.83;30.39;99232.84;4475982;32;34399;-86
2022/05/04 07:52:23;;;;;;;;;;;;;;;27.16;30.48;99239.06;4475268;32;33192;-82
2022/05/04 07:54:51;;;;;;;;;;;;;;;26.11;31.66;99239.16;4480122;32;33898;-86
2022/05/04 07:57:21;;;;;;;;;;;;;;;26.95;29.97;99241.97;4467212;32;34332;-86
2022/05/04 08:05:24;;;;;;;;;;;;;;;26.39;30.77;99258.09;4472480;32;33671;-82
2022/05/04 08:07:52;;;;;;;;;;;;;;;27.30;28.27;99256.06;4465612;32;34205;-85
2022/05/04 08:10:19;;;;;;;;;;;;;;;26.45;30.30;99254.28;4475686;32;35255;-87
2022/05/04 08:12:47;;;;;;;;;;;;;;;27.04;30.34;99252.09;4478726;32;33325;-81
2022/05/04 08:15:15;;;;;;;;;;;;;;;27.19;28.08;99247.78;4478935;32;33820;-85
2022/05/04 08:17:42;;;;;;;;;;;;;;;26.90;28.31;99244.88;4474682;32;34001;-84
2022/05/04 08:20:10;;;;;;;;;;;;;;;26.78;28.81;99242.84;4466830;32;34534;-88
2022/05/04 08:22:38;;;;;;;;;;;;;;;26.98;29.08;99244.47;4481508;32;32724;-89
2022/05/04 08:25:05;;;;;;;;;;;;;;;26.49;27.96;99239.91;4481873;32;34299;-82
2022/05/04 08:27:32;;;;;;;;;;;;;;;26.58;26.92;99235.91;4482629;32;34693;-87
2022/05/04 08:30:00;;;;;;;;;;;;;;;27.02;27.66;99243.38;4481011;32;34813;-84
2022/05/04 08:32:29;;;;;;;;;;;;;;;27.23;27.24;99244.03;4464189;32;33711;-86
2022/05/04 08:34:57;;;;;;;;;;;;;;;26.88;27.67;99246.75;4481004;32;33844;-86
2022/05/04 08:37:27;;;;;;;;;;;;;;;26.55;27.83;99246.69;4484232;32;34912;-86
2022/05/04 08:39:55;;;;;;;;;;;;;;;26.52;27.16;99249.50;4481855;32;35318;-82
2022/05/04 08:42:22;;;;;;;;;;;;;;;27.59;25.68;99257.97;4473464;32;33548;-87
2022/05/04 08:44:55;;;;;;;;;;;;;;;27.67;27.20;99264.69;4482286;32;35024;-82
2022/05/04 08:47:22;;;;;;;;;;;;;;;27.98;27.10;99248.72;4481157;32;35114;-87
2022/05/04 08:49:50;;;;;;;;;;;;;;;27.94;27.46;99262.31;4467384;32;34645;-89
2022/05/04 08:52:17;;;;;;;;;;;;;;;26.93;28.38;99263.31;4481871;32;34275;-92
2022/05/04 08:54:45;;;;;;;;;;;;;;;27.44;28.57;99266.81;4473064;32;34301;-93
2022/05/04 08:57:12;;;;;;;;;;;;;;;26.79;28.91;99256.06;4481138;32;34330;-84
2022/05/04 08:59:41;;;;;;;;;;;;;;;27.26;28.76;99259.84;4484143;32;34434;-84
2022/05/04 09:02:10;;;;;;;;;;;;;;;26.50;29.42;99257.56;4484006;32;33494;-83
2022/05/04 09:04:41;;;;;;;;;;;;;;;27.52;28.79;99259.25;4463457;32;34137;-84
2022/05/04 09:07:23;;;;;;;;;;;;;;;27.15;28.81;99258.59;4459578;32;34229;-87
2022/05/04 09:09:51;;;;;;;;;;;;;;;27.38;28.55;99256.50;4481361;32;34592;-87
2022/05/04 09:12:18;;;;;;;;;;;;;;;27.94;27.73;99262.31;4494191;31;33335;-82
2022/05/04 09:14:46;;;;;;;;;;;;;;;27.31;29.08;99257.78;4473665;31;33729;-83
2022/05/04 09:17:16;;;;;;;;;;;;;;;27.70;28.23;99252.06;4483776;32;36678;-83
2022/05/04 09:22:42;;;;;;;;;;;;;;;28.45;27.19;99253.13;4471542;32;33550;-87
2022/05/04 09:25:18;;;;;;;;;;;;;;;28.08;27.17;99257.91;4469516;32;34112;-84
2022/05/04 09:27:46;;;;;;;;;;;;;;;26.83;29.40;99252.31;4479025;32;34378;-87
2022/05/04 09:30:13;;;;;;;;;;;;;;;26.41;29.58;99253.56;4483823;32;34407;-83
2022/05/04 09:32:41;;;;;;;;;;;;;;;27.57;28.90;99253.69;4471862;32;33236;-86
2022/05/04 09:35:14;;;;;;;;;;;;;;;28.47;27.79;99239.69;4469127;32;35165;-91
2022/05/04 09:46:18;;;;;;;;;;;;;;;25.97;29.96;99245.13;4482991;32;34536;-85
2022/05/04 09:48:45;;;;;;;;;;;;;;;26.42;29.66;99249.97;4469658;32;34197;-83
2022/05/04 09:51:14;;;;;;;;;;;;;;;26.17;29.62;99242.34;4483851;32;34668;-84
2022/05/04 09:53:42;;;;;;;;;;;;;;;25.76;29.99;99251.44;4484156;32;33275;-84
2022/05/04 09:56:09;;;;;;;;;;;;;;;25.93;30.20;99247.09;4479003;32;34666;-84
2022/05/04 09:58:37;;;;;;;;;;;;;;;26.58;29.39;99242.09;4471541;32;34629;-87
2022/05/04 10:01:05;;;;;;;;;;;;;;;27.50;28.15;99244.31;4481597;32;35236;-82
2022/05/04 10:03:33;;;;;;;;;;;;;;;26.92;28.83;99237.66;4469455;32;33117;-83
2022/05/04 10:06:00;;;;;;;;;;;;;;;27.32;28.29;99232.91;4468137;32;35090;-83
2022/05/04 10:08:27;;;;;;;;;;;;;;;27.72;28.31;99234.16;4465834;32;34361;-83
2022/05/04 10:10:55;;;;;;;;;;;;;;;27.40;26.96;99228.00;4478973;32;34533;-87
2022/05/04 10:13:22;;;;;;;;;;;;;;;27.39;27.99;99234.28;4469009;32;33459;-88
2022/05/04 10:15:53;;;;;;;;;;;;;;;27.47;26.74;99224.06;4478481;32;33965;-88
2022/05/04 10:18:23;;;;;;;;;;;;;;;25.59;28.92;99233.69;4461224;32;35297;-83
2022/05/04 10:20:54;;;;;;;;;;;;;;;26.35;27.21;99210.47;4454284;32;34545;-85
2022/05/04 10:23:23;;;;;;;;;;;;;;;27.12;28.18;99216.22;4459673;32;33721;-86
2022/05/04 10:25:50;;;;;;;;;;;;;;;27.60;28.23;99216.22;4469500;32;33863;-88
2022/05/04 10:28:18;;;;;;;;;;;;;;;28.01;27.75;99215.72;4463705;32;34064;-85
2022/05/04 10:30:55;;;;;;;;;;;;;;;27.50;28.03;99215.87;4464071;32;34175;-90
2022/05/04 10:33:31;;;;;;;;;;;;;;;27.86;29.79;99214.78;4483038;32;33654;-90
2022/05/04 10:36:15;;;;;;;;;;;;;;;27.96;34.22;99229.31;4474760;32;34679;-83
2022/05/04 10:38:43;;;;;;;;;;;;;;;28.21;36.32;99244.72;4469059;32;35168;-88
2022/05/04 10:41:12;;;;;;;;;;;;;;;27.85;38.00;99256.56;4465981;32;34262;-85
2022/05/04 10:43:45;;;;;;;;;;;;;;;27.13;40.24;99264.97;4469027;32;34287;-88
2022/05/04 10:46:16;;;;;;;;;;;;;;;26.59;40.62;99257.09;4477079;32;34890;-87
2022/05/04 10:48:44;;;;;;;;;;;;;;;26.25;41.30;99260.56;4469018;32;35173;-83
2022/05/04 10:51:18;;;;;;;;;;;;;;;25.64;41.05;99248.44;4482685;32;32588;-86
2022/05/04 10:53:47;;;;;;;;;;;;;;;24.86;41.99;99246.72;4469281;32;34394;-83
2022/05/04 10:56:22;;;;;;;;;;;;;;;25.19;40.59;99247.03;4460854;32;34933;-89
2022/05/04 10:58:49;;;;;;;;;;;;;;;24.76;41.08;99248.91;4471346;32;34137;-89
2022/05/04 11:01:17;;;;;;;;;;;;;;;24.93;41.54;99255.28;4484446;32;34761;-84
2022/05/04 11:03:51;;;;;;;;;;;;;;;25.03;40.70;99239.78;4483938;32;33803;-89
2022/05/04 11:06:26;;;;;;;;;;;;;;;21.51;42.25;99245.91;4453951;32;34203;-92
2022/05/04 11:08:56;;;;;;;;;;;;;;;22.44;43.36;99231.50;4460777;32;34275;-93
2022/05/04 11:11:24;;;;;;;;;;;;;;;22.78;44.77;99232.03;4473681;32;34889;-87
2022/05/04 11:13:51;;;;;;;;;;;;;;;23.27;43.96;99238.19;4467863;32;33402;-89
2022/05/04 11:16:22;;;;;;;;;;;;;;;23.78;43.66;99237.09;4468197;32;34497;-92
2022/05/04 11:18:50;;;;;;;;;;;;;;;23.83;43.86;99228.09;4460004;32;34516;-84
2022/05/04 11:21:18;;;;;;;;;;;;;;;23.97;44.38;99229.28;4467325;32;35088;-91
2022/05/04 11:23:46;;;;;;;;;;;;;;;24.32;44.58;99223.41;4483616;32;33691;-92
2022/05/04 11:26:21;;;;;;;;;;;;;;;24.50;45.83;99225.31;4483131;32;34024;-89
2022/05/04 11:28:48;;;;;;;;;;;;;;;24.41;46.02;99221.28;4467713;32;34354;-91
2022/05/04 11:31:16;;;;;;;;;;;;;;;24.72;46.40;99226.13;4467305;32;35172;-91
2022/05/04 11:33:44;;;;;;;;;;;;;;;24.88;46.15;99225.44;4471839;32;34317;-86
2022/05/04 11:36:11;;;;;;;;;;;;;;;24.99;47.25;99217.84;4482417;32;35184;-88
2022/05/04 11:38:39;;;;;;;;;;;;;;;25.30;47.82;99221.78;4474331;32;34063;-88
2022/05/04 11:41:08;;;;;;;;;;;;;;;24.93;42.81;99219.00;4483082;32;34462;-92
2022/05/04 11:43:37;;;;;;;;;;;;;;;25.47;46.71;99221.84;4456978;32;34763;-84
2022/05/04 11:46:09;;;;;;;;;;;;;;;25.70;46.34;99215.44;4467403;32;34150;-85
2022/05/04 11:48:38;;;;;;;;;;;;;;;25.12;46.27;99221.72;4467477;32;33727;-90
2022/05/04 11:51:05;;;;;;;;;;;;;;;25.16;44.67;99217.13;4467260;32;34318;-90
2022/05/04 11:53:34;;;;;;;;;;;;;;;25.61;43.82;99226.50;4467157;32;33516;-89
2022/05/04 11:56:05;;;;;;;;;;;;;;;25.54;43.70;99223.28;4467187;32;33889;-82
2022/05/04 11:58:33;;;;;;;;;;;;;;;25.55;43.27;99222.34;4468658;32;35128;-94
2022/05/04 12:01:02;;;;;;;;;;;;;;;25.68;42.99;99225.25;4480627;32;35238;-93
2022/05/04 12:03:30;;;;;;;;;;;;;;;25.53;42.75;99224.19;4466519;32;33383;-89
2022/05/04 12:05:59;;;;;;;;;;;;;;;25.26;42.90;99230.81;4483077;32;34069;-92
2022/05/04 12:08:26;;;;;;;;;;;;;;;24.99;43.59;99234.62;4442692;32;794125;-92
2022/05/04 12:10:54;;;;;;;;;;;;;;;24.60;43.49;99231.09;4483341;32;33921;-91
2022/05/04 12:13:23;;;;;;;;;;;;;;;24.84;42.71;99232.66;4465128;32;33971;-91
2022/05/04 12:15:50;;;;;;;;;;;;;;;24.20;44.88;99238.91;4483090;32;35001;-92
2022/05/04 12:18:18;;;;;;;;;;;;;;;24.63;44.06;99241.56;4469575;32;35395;-91
2022/05/04 12:20:48;;;;;;;;;;;;;;;24.59;44.52;99246.16;4483010;32;35356;-93
2022/05/04 12:23:15;;;;;;;;;;;;;;;24.86;44.57;99251.16;4482819;32;34481;-93
2022/05/04 12:25:43;;;;;;;;;;;;;;;25.02;44.90;99243.38;4482555;32;33754;-94
2022/05/04 12:28:11;;;;;;;;;;;;;;;25.08;44.93;99243.97;4469020;32;35795;-92
2022/05/04 12:33:33;;;;;;;;;;;;;;;25.13;45.08;99234.03;4466941;32;33592;-85
2022/05/04 12:36:10;;;;;;;;;;;;;;;25.09;45.05;99226.25;4475737;31;35148;-95
2022/05/04 12:38:38;;;;;;;;;;;;;;;24.54;46.11;99221.59;4480599;32;34273;-93
2022/05/04 12:41:06;;;;;;;;;;;;;;;24.80;44.93;99222.25;4468508;32;35058;-90
2022/05/04 12:43:35;;;;;;;;;;;;;;;24.76;45.05;99211.78;4454446;32;34297;-90
2022/05/04 12:46:04;;;;;;;;;;;;;;;24.87;44.92;99205.16;4468189;32;33787;-92
2022/05/04 12:48:32;;;;;;;;;;;;;;;24.95;44.79;99206.53;4460011;32;34842;-91
2022/05/04 12:50:59;;;;;;;;;;;;;;;25.34;44.21;99202.13;4475950;32;36514;-92
2022/05/04 12:53:27;;;;;;;;;;;;;;;25.18;44.66;99196.69;4466440;32;33453;-91
2022/05/04 12:58:40;;;;;;;;;;;;;;;25.03;43.75;99182.28;4479473;32;33790;-91
2022/05/04 13:01:07;;;;;;;;;;;;;;;24.89;44.63;99182.94;4475066;32;34161;-92
2022/05/04 13:03:35;;;;;;;;;;;;;;;24.75;45.09;99183.56;4467784;32;34122;-92
2022/05/04 13:06:03;;;;;;;;;;;;;;;24.63;43.65;99177.97;4462897;32;33988;-85
2022/05/04 13:08:30;;;;;;;;;;;;;;;24.28;44.83;99178.53;4464184;32;35307;-86
2022/05/04 13:10:57;;;;;;;;;;;;;;;24.35;46.18;99183.56;4481989;32;34574;-90
2022/05/04 13:13:25;;;;;;;;;;;;;;;24.67;45.99;99193.66;4482234;32;34361;-91
2022/05/04 13:15:52;;;;;;;;;;;;;;;25.20;45.47;99186.88;4483957;32;33928;-87
2022/05/04 13:18:20;;;;;;;;;;;;;;;25.22;46.04;99182.34;4483482;32;35319;-91
2022/05/04 13:20:48;;;;;;;;;;;;;;;25.13;46.70;99194.25;4483951;32;35383;-89
2022/05/04 13:23:15;;;;;;;;;;;;;;;25.15;47.90;99192.37;4484111;32;34091;-88
2022/05/04 13:25:42;;;;;;;;;;;;;;;25.00;48.62;99198.34;4483934;32;34775;-86
2022/05/04 13:28:10;;;;;;;;;;;;;;;25.63;47.23;99198.94;4484135;32;34135;-84